Airfield :







YOU CAN JOIN US ON...

 
LOGIN :

Register | Disclaimer

   EN    FR    IT 

 









Legend :    VFR   Marginal VFR   IFR   Intensive IFR   Very Intensive IFR
Visi :
Ceiling :
>= 8 km
>= 3000ft
5 to 8 km
1000 to 3000 ft
1500m to 5 km
500 to 1000 ft
800 to 1500m
200 to 500 ft
< 800m
< 200 ft
Symbols :   Thunderstorms  Fog  Heavy snow  Heavy precipitations  Wind > 20 kt






- Airport Elevation : 160 ft
- IATA code : YYG


CYYG - Charlottetown

CURRENT METAR :
  • 090400Z 01020G30KT 4SM -DZ BR OVC005 03/03 A2927 RMK SF8 SLP916

EXPIRED METARs :
  • 090312Z 02022G34KT 6SM -DZ BR OVC005 03/03 A2928 RMK SF8 SLP919
  • 090300Z 02025G30KT 4SM -RADZ BR OVC005 03/03 A2929 RMK SF8 SLP920
  • 090246Z 02025G32KT 4SM -RA BR OVC005 03/03 A2929 RMK SF8 CIG RAG SLP922
  • 090200Z 03024G32KT 5SM -RA BR OVC006 03/03 A2931 RMK SF8 PRESFR SLP929

TAF AMD TAF CYYG
Valid from the 09 at 00:00 until the 09 at 12:00 UTC


090047Z 0900/0912 03025G40KT 1SM -RA BR OVC002
TEMPO 0900/0904 6SM -DZ BR OVC006
PROB40 0900/0904 1/4SM -RA -DZ FG VV001
FM090400 35015G28KT 1SM -RA BR OVC002
TEMPO 0904/0909 3SM -DZ BR
PROB40 0904/0909 1/4SM -RA -DZ FG VV001
FM090900 32025G35KT 1SM -RA BR OVC002
TEMPO 0909/0912 6SM -DZ BR OVC008 RMK NXT FCST BY 090600Z
CZQM FIR / North America



MET'MAP, your aeronautical weather chart ! - Copyright ORBIFLY December 2007 - Disclaimer

ORBIFLY MET'MAP TEAM :

Programming & Development : Alexandra Zaïnal
Concept & original design : Baudouin d'Aumeries
Assistance for programming : Marc-Olivier Méhu
Technical & hardware support : Manuel Goepfert

Contact : metmap@orbifly.com




SOURCES & CREDITS :

   NOAA